Aérodrome :
LOGIN :

S'inscrire | Disclaimer

   EN    FR    IT 

 










Légende :    VFR   VFR Marginal   IFR   IFR Intensif   IFR Très Intensif
Visi : 
Plafond : 
>= 8 km
>= 3000ft
5 à 8 km
1000 à 3000 ft
1500m à 5 km
500 à 1000 ft
800 à 1500m
200 à 500 ft
< 800m
< 200 ft
Symboles :   Orages  Brouillard  Fortes neiges  Fortes précipitations  Vent > 20 kt
SIGMETs :   Divers  Orages  Givrage  Turbulence  Onde Orograph.  Cendres Volcan.






- Altitude de l'aérodrome : 2776 ft
- Code IATA : VLL


LEVD - Valladolid

DERNIER METAR :
  • 220300Z AUTO 06017KT 9999 BKN009 03/01 Q1020

METARs EXPIRÉS :
  • 220230Z AUTO 06018KT 9999 SCT009 BKN049 03/01 Q1020
  • 220200Z AUTO 06022KT 9000 BKN009 03/01 Q1019
  • 220130Z AUTO 06020G30KT 9999 BKN008 OVC043 03/01 Q1019
  • 220100Z AUTO 06022KT 9000 BKN008 03/01 Q1020
  • 220030Z AUTO 06025KT 9000 BKN008 BKN043 03/01 Q1020
  • 220000Z AUTO 06021KT 9999 FEW010 BKN046 02/01 Q1020

TAF TAF LEVD
Valide du 22 à 00h jusqu'au 23 à 00h UTC


212300Z 2200/2224 05025KT 9999 SCT008 SCT015 BKN030 TX07/2215Z TN01/2200Z
TEMPO 2200/2203 04025G35KT
TEMPO 2200/2209 3000 RA BR BKN010
BECMG 2204/2208 05015KT
TEMPO 2203/2212 05015G25KT



MET'MAP, la Météo Aéronautique d'un coup d'oeil ! - Copyright ORBIFLY Décembre 2007 - Disclaimer

ORBIFLY MET'MAP TEAM :

Programmation & Développement : Alexandra Zaïnal
Sur une idée originale de : Baudouin d'Aumeries
Assistance à la programmation : Marc-Olivier Méhu
Soutien technique & logistique : Manuel Goepfert

Contact : metmap@orbifly.com




SOURCES & CREDITS :

   NOAA